Ardmore Capella — V7WK3 — position and weather

sailwx.info

Track history (hours):
 
Tides and Currents Weather Stations Pressure Air Temp Water Temp Dewpoint Dewpoint Depression Visibility Wind Speed Wind Dir Waves Ship Positions

Ardmore Capella

Last reported at 2017-Sep-16 01:55 UTC. Time now 2017-Sep-22 02:48 UTC.
Position N 04°22' W 003°09'.

Length 144 m; draft 6 m.

Type: Ship. MMSI: 538004321.

Date/timePositionNaut miles runAvg speedWind from/ knotsBaromVisibWave heightAir tempDewpointWater temp
2017-Sep-16 01:55N 04°22' W 003°09'717.1
2017-Sep-16 01:30N 04°22' W 003°01'917.1
2017-Sep-16 01:00N 04°22' W 002°53'917.1
2017-Sep-16 00:29N 04°21' W 002°44'917.1
2017-Sep-15 23:59N 04°21' W 002°35'817.0
2017-Sep-15 23:30N 04°22' W 002°27'917.4
2017-Sep-15 22:58N 04°24' W 002°18'817.3
2017-Sep-15 22:30N 04°27' W 002°11'917.5
2017-Sep-15 22:00N 04°30' W 002°03'917.4
2017-Sep-15 21:30N 04°34' W 001°55'1217.1
2017-Sep-15 20:49N 04°36' W 001°43'617.0
2017-Sep-15 20:29N 04°40' W 001°39'8216.8
2017-Sep-15 15:37N 05°13' W 000°24'1017.4
2017-Sep-15 15:04N 05°18' W 000°16'317.3
2017-Sep-15 14:54N 05°19' W 000°13'717.2
2017-Sep-15 14:30N 05°22' W 000°07'816.6
2017-Sep-15 14:00N 05°26' E 000°00'815.6
2017-Sep-15 13:30N 05°32' E 000°05'612.7
2017-Sep-15 13:00N 05°38' E 000°02'1 2.6
2017-Sep-15 12:30N 05°37' E 000°00'0 0.0
2017-Sep-15 11:59N 05°37' E 000°00'0 0.0
2017-Sep-15 11:29N 05°37' E 000°00'0 0.0
2017-Sep-15 10:59N 05°37' E 000°00'0 0.0
2017-Sep-15 10:29N 05°37' E 000°00'0 0.0
2017-Sep-15 09:59N 05°37' E 000°00'0 0.0
2017-Sep-15 09:29N 05°37' E 000°00'0 0.0
2017-Sep-15 08:59N 05°37' E 000°00'0 0.0
2017-Sep-15 08:29N 05°37' E 000°00'0 0.0
2017-Sep-15 07:59N 05°37' E 000°00'0 0.0
2017-Sep-15 07:29N 05°37' E 000°00'0 0.0
2017-Sep-15 06:59N 05°37' E 000°00'0 0.0
2017-Sep-15 06:29N 05°37' E 000°00'0 0.0
2017-Sep-15 05:59N 05°37' E 000°00'0 0.0
2017-Sep-15 05:29N 05°37' E 000°00'0 0.0
2017-Sep-15 04:59N 05°37' E 000°00'0 0.0
2017-Sep-15 04:26N 05°37' E 000°00'0 0.0
2017-Sep-15 03:59N 05°37' E 000°00'0 0.0
2017-Sep-15 03:29N 05°37' E 000°00'0 0.0
2017-Sep-15 02:59N 05°37' E 000°00'0 0.0
2017-Sep-15 02:29N 05°37' E 000°00'0 0.0
2017-Sep-15 01:59N 05°37' E 000°00'0 0.0
2017-Sep-15 01:29N 05°37' E 000°00'0 0.0
2017-Sep-15 00:59N 05°37' E 000°00'0 0.0
2017-Sep-15 00:29N 05°37' E 000°00'0 0.0
2017-Sep-14 23:59N 05°37' E 000°00'0 0.0
2017-Sep-14 23:29N 05°37' E 000°00'1 1.2
2017-Sep-14 23:00N 05°38' E 000°01'2 4.0
2017-Sep-14 22:30N 05°37' E 000°03'2 3.2
2017-Sep-14 22:00N 05°36' E 000°04'2 3.6
2017-Sep-14 21:30N 05°35' E 000°05'1 1.4
2017-Sep-14 21:00N 05°34' E 000°05'1 1.4
2017-Sep-14 20:30N 05°33' E 000°04'1 3.0
2017-Sep-14 20:00N 05°35' E 000°05'1 2.8
2017-Sep-14 19:30N 05°36' E 000°06'1 1.5
2017-Sep-14 19:00N 05°35' E 000°06'4 7.8
2017-Sep-14 18:30N 05°35' E 000°10'4 7.5
2017-Sep-14 18:00N 05°34' E 000°14'1 1.7
2017-Sep-14 17:30N 05°34' E 000°13'1 1.7
2017-Sep-14 17:00N 05°33' E 000°13'1 1.7
2017-Sep-14 16:30N 05°32' E 000°12'1 1.8
2017-Sep-14 16:00N 05°32' E 000°11'1 1.7
2017-Sep-14 15:30N 05°31' E 000°11'1 1.7
2017-Sep-14 15:00N 05°30' E 000°10'1 1.6
2017-Sep-14 14:30N 05°30' E 000°10'1 1.5
2017-Sep-14 14:00N 05°29' E 000°09'1 1.5
2017-Sep-14 13:30N 05°29' E 000°09'1 1.4
2017-Sep-14 13:00N 05°28' E 000°08'1 1.3
2017-Sep-14 12:30N 05°27' E 000°08'1 1.1
2017-Sep-14 12:00N 05°27' E 000°08'0 1.0
2017-Sep-14 11:30N 05°27' E 000°08'0 0.8
2017-Sep-14 11:00N 05°26' E 000°07'0 0.8
2017-Sep-14 10:30N 05°26' E 000°07'0 0.8
2017-Sep-14 10:00N 05°25' E 000°07'1 2.2
2017-Sep-14 09:30N 05°25' E 000°08'1 1.6
2017-Sep-14 09:00N 05°24' E 000°09'0 0.8
2017-Sep-14 08:30N 05°24' E 000°09'0 0.9
2017-Sep-14 08:00N 05°24' E 000°08'0 0.9
2017-Sep-14 07:30N 05°23' E 000°08'0 0.9
2017-Sep-14 07:00N 05°23' E 000°08'0 0.8
2017-Sep-14 06:30N 05°23' E 000°07'1 1.1
2017-Sep-14 06:00N 05°22' E 000°07'1 1.1
2017-Sep-14 05:30N 05°22' E 000°07'1 1.1
2017-Sep-14 05:00N 05°21' E 000°07'0 0.7
2017-Sep-14 04:30N 05°21' E 000°07'0 0.8
2017-Sep-14 04:00N 05°21' E 000°06'1 1.0
2017-Sep-14 03:30N 05°20' E 000°06'1 1.0
2017-Sep-14 03:00N 05°20' E 000°06'0 0.9
2017-Sep-14 02:30N 05°19' E 000°06'1 1.1
2017-Sep-14 02:00N 05°19' E 000°06'1 1.1
2017-Sep-14 01:30N 05°18' E 000°06'1 1.2
2017-Sep-14 01:00N 05°18' E 000°05'1 1.1
2017-Sep-14 00:30N 05°17' E 000°05'1 1.2
2017-Sep-14 00:00N 05°16' E 000°05'1 1.2
2017-Sep-13 23:30N 05°16' E 000°05'1 1.2
2017-Sep-13 23:00N 05°15' E 000°05'1 1.1
2017-Sep-13 22:30N 05°15' E 000°05'1 1.1
2017-Sep-13 22:00N 05°14' E 000°05'1 1.1
2017-Sep-13 21:30N 05°14' E 000°04'1 1.3
2017-Sep-13 21:00N 05°13' E 000°04'1 1.2
2017-Sep-13 20:30N 05°13' E 000°04'0 0.9
2017-Sep-13 20:00N 05°12' E 000°04'1 2.5
2017-Sep-13 19:30N 05°13' E 000°04'611.8
2017-Sep-13 19:00N 05°19' E 000°04'510.0
2017-Sep-13 18:30N 05°24' E 000°05'1 1.2
2017-Sep-13 18:00N 05°24' E 000°05'1 1.4
2017-Sep-13 17:30N 05°23' E 000°04'510.1
2017-Sep-13 17:00N 05°22' W 000°00'612.2
2017-Sep-13 16:31N 05°19' W 000°06'1 1.6
2017-Sep-13 16:00N 05°18' W 000°06'0 0.9
2017-Sep-13 15:30N 05°18' W 000°06'1 1.0
2017-Sep-13 15:00N 05°17' W 000°06'0 1.0
2017-Sep-13 14:30N 05°17' W 000°06'0 0.9
2017-Sep-13 14:00N 05°16' W 000°06'0 0.9
2017-Sep-13 13:30N 05°16' W 000°06'0 0.8
2017-Sep-13 13:00N 05°15' W 000°06'0 0.9
2017-Sep-13 12:30N 05°15' W 000°06'0 0.7
2017-Sep-13 12:00N 05°14' W 000°06'0 0.9
2017-Sep-13 11:30N 05°14' W 000°06'0 0.8
2017-Sep-13 11:00N 05°14' W 000°06'0 0.8
2017-Sep-13 10:30N 05°13' W 000°06'0 0.8
2017-Sep-13 10:00N 05°13' W 000°06'0 0.8
2017-Sep-13 09:27N 05°13' W 000°06'0 0.8
2017-Sep-13 09:00N 05°12' W 000°06'0 0.8
2017-Sep-13 08:30N 05°12' W 000°05'0 0.8
2017-Sep-13 07:59N 05°11' W 000°05'1 0.8
2017-Sep-13 06:13N 05°10' W 000°05'0 0.8
2017-Sep-13 06:00N 05°10' W 000°05'0 0.8
2017-Sep-13 05:30N 05°10' W 000°05'1 0.9
2017-Sep-13 04:54N 05°09' W 000°05'10 1.1
2017-Sep-12 19:48N 04°59' W 000°04'8 3.0
2017-Sep-12 17:03N 05°08' W 000°05'115.6
2017-Sep-12 17:00N 05°08' W 000°05'715.1
2017-Sep-12 16:30N 05°16' W 000°04'511.0
2017-Sep-12 16:00N 05°21' W 000°03'0 0.8
2017-Sep-12 15:30N 05°21' W 000°03'1 1.2
2017-Sep-12 15:00N 05°20' W 000°03'0 1.0
2017-Sep-12 14:30N 05°20' W 000°03'0 0.9
2017-Sep-12 14:00N 05°19' W 000°03'0 0.9
2017-Sep-12 13:30N 05°19' W 000°03'0 0.9
2017-Sep-12 13:00N 05°18' W 000°03'0 0.8
2017-Sep-12 12:30N 05°18' W 000°03'0 0.9
2017-Sep-12 12:00N 05°18' W 000°03'0 0.9
2017-Sep-12 11:30N 05°17' W 000°03'1 1.0
2017-Sep-12 11:00N 05°17' W 000°03'1 1.1
2017-Sep-12 10:30N 05°16' W 000°04'1 1.1
2017-Sep-12 10:00N 05°16' W 000°04'1 1.1
2017-Sep-12 09:30N 05°15' W 000°04'0 1.0
2017-Sep-12 08:59N 05°15' W 000°04'0 1.0
2017-Sep-12 08:30N 05°14' W 000°03'0 0.9
2017-Sep-12 08:00N 05°14' W 000°03'1 1.0
2017-Sep-12 07:28N 05°13' W 000°03'1 1.0
2017-Sep-12 06:58N 05°13' W 000°03'1 1.2
2017-Sep-12 06:30N 05°12' W 000°03'1 1.2
2017-Sep-12 05:59N 05°11' W 000°04'1 1.0
2017-Sep-12 05:28N 05°11' W 000°04'1 1.0
2017-Sep-12 03:57N 05°09' W 000°04'9 0.9
2017-Sep-11 17:58N 05°14' E 000°04'713.2
2017-Sep-11 17:28N 05°19' E 000°08'613.3
2017-Sep-11 17:00N 05°24' E 000°11'611.9
2017-Sep-11 16:30N 05°29' E 000°14'612.9
2017-Sep-11 16:00N 05°28' E 000°20'714.2
2017-Sep-11 15:30N 05°25' E 000°27'  
Track history (hours):
 
Tides and Currents Weather Stations Pressure Air Temp Water Temp Dewpoint Dewpoint Depression Visibility Wind Speed Wind Dir Waves Ship Positions

Ardmore Capella

Last reported at 2017-Sep-16 01:55 UTC. Time now 2017-Sep-22 02:48 UTC.
Position N 04°22' W 003°09'.

Length 144 m; draft 6 m.

Type: Ship. MMSI: 538004321.

Date/timePositionNaut miles runAvg speedWind from/ knotsBaromVisibWave heightAir tempDewpointWater temp
2017-Sep-16 01:55N 04°22' W 003°09'717.1
2017-Sep-16 01:30N 04°22' W 003°01'917.1
2017-Sep-16 01:00N 04°22' W 002°53'917.1
2017-Sep-16 00:29N 04°21' W 002°44'917.1
2017-Sep-15 23:59N 04°21' W 002°35'817.0
2017-Sep-15 23:30N 04°22' W 002°27'917.4
2017-Sep-15 22:58N 04°24' W 002°18'817.3
2017-Sep-15 22:30N 04°27' W 002°11'917.5
2017-Sep-15 22:00N 04°30' W 002°03'917.4
2017-Sep-15 21:30N 04°34' W 001°55'1217.1
2017-Sep-15 20:49N 04°36' W 001°43'617.0
2017-Sep-15 20:29N 04°40' W 001°39'8216.8
2017-Sep-15 15:37N 05°13' W 000°24'1017.4
2017-Sep-15 15:04N 05°18' W 000°16'317.3
2017-Sep-15 14:54N 05°19' W 000°13'717.2
2017-Sep-15 14:30N 05°22' W 000°07'816.6
2017-Sep-15 14:00N 05°26' E 000°00'815.6
2017-Sep-15 13:30N 05°32' E 000°05'612.7
2017-Sep-15 13:00N 05°38' E 000°02'1 2.6
2017-Sep-15 12:30N 05°37' E 000°00'0 0.0
2017-Sep-15 11:59N 05°37' E 000°00'0 0.0
2017-Sep-15 11:29N 05°37' E 000°00'0 0.0
2017-Sep-15 10:59N 05°37' E 000°00'0 0.0
2017-Sep-15 10:29N 05°37' E 000°00'0 0.0
2017-Sep-15 09:59N 05°37' E 000°00'0 0.0
2017-Sep-15 09:29N 05°37' E 000°00'0 0.0
2017-Sep-15 08:59N 05°37' E 000°00'0 0.0
2017-Sep-15 08:29N 05°37' E 000°00'0 0.0
2017-Sep-15 07:59N 05°37' E 000°00'0 0.0
2017-Sep-15 07:29N 05°37' E 000°00'0 0.0
2017-Sep-15 06:59N 05°37' E 000°00'0 0.0
2017-Sep-15 06:29N 05°37' E 000°00'0 0.0
2017-Sep-15 05:59N 05°37' E 000°00'0 0.0
2017-Sep-15 05:29N 05°37' E 000°00'0 0.0
2017-Sep-15 04:59N 05°37' E 000°00'0 0.0
2017-Sep-15 04:26N 05°37' E 000°00'0 0.0
2017-Sep-15 03:59N 05°37' E 000°00'0 0.0
2017-Sep-15 03:29N 05°37' E 000°00'0 0.0
2017-Sep-15 02:59N 05°37' E 000°00'0 0.0
2017-Sep-15 02:29N 05°37' E 000°00'0 0.0
2017-Sep-15 01:59N 05°37' E 000°00'0 0.0
2017-Sep-15 01:29N 05°37' E 000°00'0 0.0
2017-Sep-15 00:59N 05°37' E 000°00'0 0.0
2017-Sep-15 00:29N 05°37' E 000°00'0 0.0
2017-Sep-14 23:59N 05°37' E 000°00'0 0.0
2017-Sep-14 23:29N 05°37' E 000°00'1 1.2
2017-Sep-14 23:00N 05°38' E 000°01'2 4.0
2017-Sep-14 22:30N 05°37' E 000°03'2 3.2
2017-Sep-14 22:00N 05°36' E 000°04'2 3.6
2017-Sep-14 21:30N 05°35' E 000°05'1 1.4
2017-Sep-14 21:00N 05°34' E 000°05'1 1.4
2017-Sep-14 20:30N 05°33' E 000°04'1 3.0
2017-Sep-14 20:00N 05°35' E 000°05'1 2.8
2017-Sep-14 19:30N 05°36' E 000°06'1 1.5
2017-Sep-14 19:00N 05°35' E 000°06'4 7.8
2017-Sep-14 18:30N 05°35' E 000°10'4 7.5
2017-Sep-14 18:00N 05°34' E 000°14'1 1.7
2017-Sep-14 17:30N 05°34' E 000°13'1 1.7
2017-Sep-14 17:00N 05°33' E 000°13'1 1.7
2017-Sep-14 16:30N 05°32' E 000°12'1 1.8
2017-Sep-14 16:00N 05°32' E 000°11'1 1.7
2017-Sep-14 15:30N 05°31' E 000°11'1 1.7
2017-Sep-14 15:00N 05°30' E 000°10'1 1.6
2017-Sep-14 14:30N 05°30' E 000°10'1 1.5
2017-Sep-14 14:00N 05°29' E 000°09'1 1.5
2017-Sep-14 13:30N 05°29' E 000°09'1 1.4
2017-Sep-14 13:00N 05°28' E 000°08'1 1.3
2017-Sep-14 12:30N 05°27' E 000°08'1 1.1
2017-Sep-14 12:00N 05°27' E 000°08'0 1.0
2017-Sep-14 11:30N 05°27' E 000°08'0 0.8
2017-Sep-14 11:00N 05°26' E 000°07'0 0.8
2017-Sep-14 10:30N 05°26' E 000°07'0 0.8
2017-Sep-14 10:00N 05°25' E 000°07'1 2.2
2017-Sep-14 09:30N 05°25' E 000°08'1 1.6
2017-Sep-14 09:00N 05°24' E 000°09'0 0.8
2017-Sep-14 08:30N 05°24' E 000°09'0 0.9
2017-Sep-14 08:00N 05°24' E 000°08'0 0.9
2017-Sep-14 07:30N 05°23' E 000°08'0 0.9
2017-Sep-14 07:00N 05°23' E 000°08'0 0.8
2017-Sep-14 06:30N 05°23' E 000°07'1 1.1
2017-Sep-14 06:00N 05°22' E 000°07'1 1.1
2017-Sep-14 05:30N 05°22' E 000°07'1 1.1
2017-Sep-14 05:00N 05°21' E 000°07'0 0.7
2017-Sep-14 04:30N 05°21' E 000°07'0 0.8
2017-Sep-14 04:00N 05°21' E 000°06'1 1.0
2017-Sep-14 03:30N 05°20' E 000°06'1 1.0
2017-Sep-14 03:00N 05°20' E 000°06'0 0.9
2017-Sep-14 02:30N 05°19' E 000°06'1 1.1
2017-Sep-14 02:00N 05°19' E 000°06'1 1.1
2017-Sep-14 01:30N 05°18' E 000°06'1 1.2
2017-Sep-14 01:00N 05°18' E 000°05'1 1.1
2017-Sep-14 00:30N 05°17' E 000°05'1 1.2
2017-Sep-14 00:00N 05°16' E 000°05'1 1.2
2017-Sep-13 23:30N 05°16' E 000°05'1 1.2
2017-Sep-13 23:00N 05°15' E 000°05'1 1.1
2017-Sep-13 22:30N 05°15' E 000°05'1 1.1
2017-Sep-13 22:00N 05°14' E 000°05'1 1.1
2017-Sep-13 21:30N 05°14' E 000°04'1 1.3
2017-Sep-13 21:00N 05°13' E 000°04'1 1.2
2017-Sep-13 20:30N 05°13' E 000°04'0 0.9
2017-Sep-13 20:00N 05°12' E 000°04'1 2.5
2017-Sep-13 19:30N 05°13' E 000°04'611.8
2017-Sep-13 19:00N 05°19' E 000°04'510.0
2017-Sep-13 18:30N 05°24' E 000°05'1 1.2
2017-Sep-13 18:00N 05°24' E 000°05'1 1.4
2017-Sep-13 17:30N 05°23' E 000°04'510.1
2017-Sep-13 17:00N 05°22' W 000°00'612.2
2017-Sep-13 16:31N 05°19' W 000°06'1 1.6
2017-Sep-13 16:00N 05°18' W 000°06'0 0.9
2017-Sep-13 15:30N 05°18' W 000°06'1 1.0
2017-Sep-13 15:00N 05°17' W 000°06'0 1.0
2017-Sep-13 14:30N 05°17' W 000°06'0 0.9
2017-Sep-13 14:00N 05°16' W 000°06'0 0.9
2017-Sep-13 13:30N 05°16' W 000°06'0 0.8
2017-Sep-13 13:00N 05°15' W 000°06'0 0.9
2017-Sep-13 12:30N 05°15' W 000°06'0 0.7
2017-Sep-13 12:00N 05°14' W 000°06'0 0.9
2017-Sep-13 11:30N 05°14' W 000°06'0 0.8
2017-Sep-13 11:00N 05°14' W 000°06'0 0.8
2017-Sep-13 10:30N 05°13' W 000°06'0 0.8
2017-Sep-13 10:00N 05°13' W 000°06'0 0.8
2017-Sep-13 09:27N 05°13' W 000°06'0 0.8
2017-Sep-13 09:00N 05°12' W 000°06'0 0.8
2017-Sep-13 08:30N 05°12' W 000°05'0 0.8
2017-Sep-13 07:59N 05°11' W 000°05'1 0.8
2017-Sep-13 06:13N 05°10' W 000°05'0 0.8
2017-Sep-13 06:00N 05°10' W 000°05'0 0.8
2017-Sep-13 05:30N 05°10' W 000°05'1 0.9
2017-Sep-13 04:54N 05°09' W 000°05'10 1.1
2017-Sep-12 19:48N 04°59' W 000°04'8 3.0
2017-Sep-12 17:03N 05°08' W 000°05'115.6
2017-Sep-12 17:00N 05°08' W 000°05'715.1
2017-Sep-12 16:30N 05°16' W 000°04'511.0
2017-Sep-12 16:00N 05°21' W 000°03'0 0.8
2017-Sep-12 15:30N 05°21' W 000°03'1 1.2
2017-Sep-12 15:00N 05°20' W 000°03'0 1.0
2017-Sep-12 14:30N 05°20' W 000°03'0 0.9
2017-Sep-12 14:00N 05°19' W 000°03'0 0.9
2017-Sep-12 13:30N 05°19' W 000°03'0 0.9
2017-Sep-12 13:00N 05°18' W 000°03'0 0.8
2017-Sep-12 12:30N 05°18' W 000°03'0 0.9
2017-Sep-12 12:00N 05°18' W 000°03'0 0.9
2017-Sep-12 11:30N 05°17' W 000°03'1 1.0
2017-Sep-12 11:00N 05°17' W 000°03'1 1.1
2017-Sep-12 10:30N 05°16' W 000°04'1 1.1
2017-Sep-12 10:00N 05°16' W 000°04'1 1.1
2017-Sep-12 09:30N 05°15' W 000°04'0 1.0
2017-Sep-12 08:59N 05°15' W 000°04'0 1.0
2017-Sep-12 08:30N 05°14' W 000°03'0 0.9
2017-Sep-12 08:00N 05°14' W 000°03'1 1.0
2017-Sep-12 07:28N 05°13' W 000°03'1 1.0
2017-Sep-12 06:58N 05°13' W 000°03'1 1.2
2017-Sep-12 06:30N 05°12' W 000°03'1 1.2
2017-Sep-12 05:59N 05°11' W 000°04'1 1.0
2017-Sep-12 05:28N 05°11' W 000°04'1 1.0
2017-Sep-12 03:57N 05°09' W 000°04'9 0.9
2017-Sep-11 17:58N 05°14' E 000°04'713.2
2017-Sep-11 17:28N 05°19' E 000°08'613.3
2017-Sep-11 17:00N 05°24' E 000°11'611.9
2017-Sep-11 16:30N 05°29' E 000°14'612.9
2017-Sep-11 16:00N 05°28' E 000°20'714.2
2017-Sep-11 15:30N 05°25' E 000°27'  

Dump ship's entire track history